sensor_id;sensor_type;location;lat;lon;timestamp;pressure;altitude;pressure_sealevel;temperature;humidity
62103;BME280;48077;48.104;11.702;2022-08-18T00:04:31;95156.09;;;18.22;93.42
62103;BME280;48077;48.104;11.702;2022-08-18T00:06:55;95158.75;;;18.27;93.86
62103;BME280;48077;48.104;11.702;2022-08-18T00:09:18;95154.94;;;18.28;93.55
62103;BME280;48077;48.104;11.702;2022-08-18T00:11:43;95151.44;;;18.28;93.90
62103;BME280;48077;48.104;11.702;2022-08-18T00:14:07;95148.22;;;18.26;94.04
62103;BME280;48077;48.104;11.702;2022-08-18T00:16:32;95142.03;;;18.25;94.48
62103;BME280;48077;48.104;11.702;2022-08-18T00:18:55;95146.84;;;18.28;94.26
62103;BME280;48077;48.104;11.702;2022-08-18T00:21:18;95138.22;;;18.26;93.66
62103;BME280;48077;48.104;11.702;2022-08-18T00:23:42;95151.16;;;18.29;93.80
62103;BME280;48077;48.104;11.702;2022-08-18T00:26:05;95142.53;;;18.27;93.97
62103;BME280;48077;48.104;11.702;2022-08-18T00:28:29;95145.25;;;18.27;93.85
62103;BME280;48077;48.104;11.702;2022-08-18T00:30:52;95148.75;;;18.28;93.88
62103;BME280;48077;48.104;11.702;2022-08-18T00:33:15;95143.34;;;18.28;93.75
62103;BME280;48077;48.104;11.702;2022-08-18T00:35:39;95146.59;;;18.25;93.59
62103;BME280;48077;48.104;11.702;2022-08-18T00:38:05;95159.53;;;18.28;93.85
62103;BME280;48077;48.104;11.702;2022-08-18T00:40:32;95176.81;;;18.27;93.82
62103;BME280;48077;48.104;11.702;2022-08-18T00:43:01;95178.72;;;18.26;93.62
62103;BME280;48077;48.104;11.702;2022-08-18T00:45:36;95155.28;;;18.22;93.63
62103;BME280;48077;48.104;11.702;2022-08-18T00:47:59;95156.38;;;18.20;93.34
62103;BME280;48077;48.104;11.702;2022-08-18T00:50:44;95153.97;;;18.19;93.40
62103;BME280;48077;48.104;11.702;2022-08-18T00:53:18;95152.09;;;18.19;93.34
62103;BME280;48077;48.104;11.702;2022-08-18T00:55:44;95144.84;;;18.15;92.95
62103;BME280;48077;48.104;11.702;2022-08-18T00:58:13;95145.38;;;18.17;93.07
62103;BME280;48077;48.104;11.702;2022-08-18T01:00:38;95142.94;;;18.15;92.57
62103;BME280;48077;48.104;11.702;2022-08-18T01:03:04;95158.03;;;18.16;93.36
62103;BME280;48077;48.104;11.702;2022-08-18T01:05:35;95160.75;;;18.16;93.19
62103;BME280;48077;48.104;11.702;2022-08-18T01:08:03;95172.16;;;18.08;93.39
62103;BME280;48077;48.104;11.702;2022-08-18T01:10:26;95187.28;;;18.09;93.51
62103;BME280;48077;48.104;11.702;2022-08-18T01:12:56;95184.94;;;18.03;93.35
62103;BME280;48077;48.104;11.702;2022-08-18T01:15:21;95172.31;;;17.98;93.35
62103;BME280;48077;48.104;11.702;2022-08-18T01:17:46;95166.16;;;17.92;93.21
62103;BME280;48077;48.104;11.702;2022-08-18T01:20:51;95169.41;;;17.89;93.18
62103;BME280;48077;48.104;11.702;2022-08-18T01:23:37;95172.94;;;17.90;93.10
62103;BME280;48077;48.104;11.702;2022-08-18T01:26:00;95178.03;;;17.91;93.34
62103;BME280;48077;48.104;11.702;2022-08-18T01:28:27;95179.13;;;17.90;93.19
62103;BME280;48077;48.104;11.702;2022-08-18T01:30:52;95171.38;;;17.84;93.29
62103;BME280;48077;48.104;11.702;2022-08-18T01:33:18;95167.09;;;17.77;93.62
62103;BME280;48077;48.104;11.702;2022-08-18T01:35:44;95161.47;;;17.74;93.76
62103;BME280;48077;48.104;11.702;2022-08-18T01:38:11;95172.53;;;17.72;93.23
62103;BME280;48077;48.104;11.702;2022-08-18T01:40:35;95173.84;;;17.75;93.27
62103;BME280;48077;48.104;11.702;2022-08-18T01:42:58;95183.63;;;17.71;93.49
62103;BME280;48077;48.104;11.702;2022-08-18T01:45:25;95168.53;;;17.70;93.53
62103;BME280;48077;48.104;11.702;2022-08-18T01:47:49;95169.91;;;17.67;93.62
62103;BME280;48077;48.104;11.702;2022-08-18T01:50:12;95156.47;;;17.62;93.46
62103;BME280;48077;48.104;11.702;2022-08-18T01:52:36;95152.97;;;17.62;93.63
62103;BME280;48077;48.104;11.702;2022-08-18T01:55:00;95156.75;;;17.60;93.73
62103;BME280;48077;48.104;11.702;2022-08-18T01:57:24;95150.34;;;17.56;93.66
62103;BME280;48077;48.104;11.702;2022-08-18T01:59:47;95140.69;;;17.50;93.88
62103;BME280;48077;48.104;11.702;2022-08-18T02:02:14;95142.34;;;17.46;94.36
62103;BME280;48077;48.104;11.702;2022-08-18T02:04:39;95137.25;;;17.39;94.30
62103;BME280;48077;48.104;11.702;2022-08-18T02:07:06;95143.75;;;17.38;94.24
62103;BME280;48077;48.104;11.702;2022-08-18T02:09:30;95156.97;;;17.40;94.45
62103;BME280;48077;48.104;11.702;2022-08-18T02:11:54;95144.84;;;17.37;94.48
62103;BME280;48077;48.104;11.702;2022-08-18T02:14:18;95144.59;;;17.34;94.72
62103;BME280;48077;48.104;11.702;2022-08-18T02:16:41;95149.75;;;17.30;94.47
62103;BME280;48077;48.104;11.702;2022-08-18T02:19:04;95145.75;;;17.28;94.81
62103;BME280;48077;48.104;11.702;2022-08-18T02:21:28;95141.75;;;17.20;95.04
62103;BME280;48077;48.104;11.702;2022-08-18T02:23:51;95149.03;;;17.19;95.17
62103;BME280;48077;48.104;11.702;2022-08-18T02:26:16;95152.00;;;17.18;95.02
62103;BME280;48077;48.104;11.702;2022-08-18T02:28:40;95154.72;;;17.18;95.02
62103;BME280;48077;48.104;11.702;2022-08-18T02:31:09;95140.25;;;17.09;94.79
62103;BME280;48077;48.104;11.702;2022-08-18T02:33:33;95131.06;;;17.10;94.61
62103;BME280;48077;48.104;11.702;2022-08-18T02:35:57;95137.50;;;17.14;94.64
62103;BME280;48077;48.104;11.702;2022-08-18T02:38:20;95134.56;;;17.10;94.81
62103;BME280;48077;48.104;11.702;2022-08-18T02:40:44;95135.94;;;17.08;94.93
62103;BME280;48077;48.104;11.702;2022-08-18T02:43:09;95142.69;;;17.05;95.21
62103;BME280;48077;48.104;11.702;2022-08-18T02:45:32;95135.19;;;17.02;95.22
62103;BME280;48077;48.104;11.702;2022-08-18T02:47:56;95130.94;;;16.96;95.29
62103;BME280;48077;48.104;11.702;2022-08-18T02:50:21;95129.63;;;16.88;95.22
62103;BME280;48077;48.104;11.702;2022-08-18T02:52:44;95118.34;;;16.81;95.71
62103;BME280;48077;48.104;11.702;2022-08-18T02:55:08;95109.22;;;16.82;95.62
62103;BME280;48077;48.104;11.702;2022-08-18T02:57:32;95118.63;;;16.79;95.76
62103;BME280;48077;48.104;11.702;2022-08-18T02:59:56;95119.97;;;16.77;95.65
62103;BME280;48077;48.104;11.702;2022-08-18T03:02:19;95119.75;;;16.73;95.72
62103;BME280;48077;48.104;11.702;2022-08-18T03:04:43;95125.16;;;16.68;96.03
62103;BME280;48077;48.104;11.702;2022-08-18T03:07:06;95128.38;;;16.70;95.79
62103;BME280;48077;48.104;11.702;2022-08-18T03:09:31;95135.66;;;16.70;95.87
62103;BME280;48077;48.104;11.702;2022-08-18T03:11:54;95140.78;;;16.66;95.72
62103;BME280;48077;48.104;11.702;2022-08-18T03:14:18;95132.19;;;16.64;95.77
62103;BME280;48077;48.104;11.702;2022-08-18T03:16:44;95126.31;;;16.57;95.89
62103;BME280;48077;48.104;11.702;2022-08-18T03:19:07;95125.00;;;16.49;96.25
62103;BME280;48077;48.104;11.702;2022-08-18T03:21:31;95132.31;;;16.44;96.66
62103;BME280;48077;48.104;11.702;2022-08-18T03:23:57;95125.06;;;16.44;96.86
62103;BME280;48077;48.104;11.702;2022-08-18T03:26:22;95116.19;;;16.38;96.89
62103;BME280;48077;48.104;11.702;2022-08-18T03:28:47;95117.56;;;16.36;96.63
62103;BME280;48077;48.104;11.702;2022-08-18T03:31:13;95113.81;;;16.32;96.85
62103;BME280;48077;48.104;11.702;2022-08-18T03:33:36;95116.25;;;16.28;97.15
62103;BME280;48077;48.104;11.702;2022-08-18T03:36:08;95116.00;;;16.25;97.17
62103;BME280;48077;48.104;11.702;2022-08-18T03:38:32;95122.22;;;16.25;97.15
62103;BME280;48077;48.104;11.702;2022-08-18T03:40:56;95109.84;;;16.19;96.97
62103;BME280;48077;48.104;11.702;2022-08-18T03:43:19;95105.28;;;16.14;97.22
62103;BME280;48077;48.104;11.702;2022-08-18T03:45:43;95107.19;;;16.14;97.48
62103;BME280;48077;48.104;11.702;2022-08-18T03:48:06;95112.59;;;16.09;97.73
62103;BME280;48077;48.104;11.702;2022-08-18T03:50:31;95120.38;;;16.10;97.43
62103;BME280;48077;48.104;11.702;2022-08-18T03:52:54;95104.84;;;16.02;97.39
62103;BME280;48077;48.104;11.702;2022-08-18T03:55:21;95115.03;;;16.05;97.77
62103;BME280;48077;48.104;11.702;2022-08-18T03:57:44;95112.34;;;16.05;97.64
62103;BME280;48077;48.104;11.702;2022-08-18T04:00:08;95100.53;;;16.01;97.32
62103;BME280;48077;48.104;11.702;2022-08-18T04:02:32;95098.94;;;15.95;97.56
62103;BME280;48077;48.104;11.702;2022-08-18T04:04:55;95092.50;;;15.91;98.01
62103;BME280;48077;48.104;11.702;2022-08-18T04:07:18;95109.19;;;15.88;98.24
62103;BME280;48077;48.104;11.702;2022-08-18T04:09:43;95119.66;;;15.89;98.32
62103;BME280;48077;48.104;11.702;2022-08-18T04:12:09;95122.09;;;15.91;97.69
62103;BME280;48077;48.104;11.702;2022-08-18T04:14:36;95121.56;;;15.89;97.56
62103;BME280;48077;48.104;11.702;2022-08-18T04:16:59;95113.22;;;15.85;97.82
62103;BME280;48077;48.104;11.702;2022-08-18T04:19:23;95100.06;;;15.78;98.04
62103;BME280;48077;48.104;11.702;2022-08-18T04:21:50;95095.22;;;15.81;98.39
62103;BME280;48077;48.104;11.702;2022-08-18T04:24:14;95089.31;;;15.78;98.88
62103;BME280;48077;48.104;11.702;2022-08-18T04:26:41;95090.94;;;15.80;98.61
62103;BME280;48077;48.104;11.702;2022-08-18T04:29:06;95072.91;;;15.80;98.60
62103;BME280;48077;48.104;11.702;2022-08-18T04:31:30;95082.31;;;15.83;98.36
62103;BME280;48077;48.104;11.702;2022-08-18T04:33:55;95078.56;;;15.84;98.23
62103;BME280;48077;48.104;11.702;2022-08-18T04:36:19;95073.72;;;15.86;97.45
62103;BME280;48077;48.104;11.702;2022-08-18T04:38:43;95066.44;;;15.81;98.35
62103;BME280;48077;48.104;11.702;2022-08-18T04:41:07;95061.91;;;15.76;98.36
62103;BME280;48077;48.104;11.702;2022-08-18T04:43:31;95081.53;;;15.77;99.20
62103;BME280;48077;48.104;11.702;2022-08-18T04:45:55;95071.56;;;15.83;98.97
62103;BME280;48077;48.104;11.702;2022-08-18T04:48:23;95070.50;;;15.84;98.63
62103;BME280;48077;48.104;11.702;2022-08-18T04:50:47;95080.69;;;15.87;99.22
62103;BME280;48077;48.104;11.702;2022-08-18T04:53:10;95103.53;;;15.94;98.89
62103;BME280;48077;48.104;11.702;2022-08-18T04:55:54;95093.81;;;15.98;98.44
62103;BME280;48077;48.104;11.702;2022-08-18T04:58:19;95089.22;;;16.04;97.77
62103;BME280;48077;48.104;11.702;2022-08-18T05:00:43;95087.63;;;15.98;97.66
62103;BME280;48077;48.104;11.702;2022-08-18T05:03:07;95095.16;;;16.01;97.64
62103;BME280;48077;48.104;11.702;2022-08-18T05:05:30;95105.31;;;16.09;97.97
62103;BME280;48077;48.104;11.702;2022-08-18T05:07:54;95113.63;;;16.18;97.59
62103;BME280;48077;48.104;11.702;2022-08-18T05:10:18;95101.25;;;16.17;97.18
62103;BME280;48077;48.104;11.702;2022-08-18T05:12:41;95107.44;;;16.17;97.69
62103;BME280;48077;48.104;11.702;2022-08-18T05:15:05;95129.97;;;16.27;98.28
62103;BME280;48077;48.104;11.702;2022-08-18T05:17:29;95130.50;;;16.34;97.72
62103;BME280;48077;48.104;11.702;2022-08-18T05:19:53;95156.50;;;16.49;97.66
62103;BME280;48077;48.104;11.702;2022-08-18T05:22:16;95153.75;;;16.59;97.03
62103;BME280;48077;48.104;11.702;2022-08-18T05:24:42;95137.34;;;16.61;96.64
62103;BME280;48077;48.104;11.702;2022-08-18T05:27:06;95135.69;;;16.65;95.97
62103;BME280;48077;48.104;11.702;2022-08-18T05:29:29;95127.09;;;16.63;96.45
62103;BME280;48077;48.104;11.702;2022-08-18T05:32:00;95128.09;;;16.72;96.75
62103;BME280;48077;48.104;11.702;2022-08-18T05:34:25;95133.16;;;16.84;96.97
62103;BME280;48077;48.104;11.702;2022-08-18T05:39:25;95157.22;;;17.09;94.23
62103;BME280;48077;48.104;11.702;2022-08-18T05:41:59;95135.31;;;17.16;93.63
62103;BME280;48077;48.104;11.702;2022-08-18T05:44:27;95143.81;;;17.33;92.40
62103;BME280;48077;48.104;11.702;2022-08-18T05:46:58;95164.47;;;17.43;92.15
62103;BME280;48077;48.104;11.702;2022-08-18T05:49:25;95159.78;;;17.54;92.18
62103;BME280;48077;48.104;11.702;2022-08-18T05:51:56;95151.59;;;17.64;91.26
62103;BME280;48077;48.104;11.702;2022-08-18T05:54:22;95152.09;;;17.66;90.45
62103;BME280;48077;48.104;11.702;2022-08-18T05:57:10;95171.63;;;17.82;90.87
62103;BME280;48077;48.104;11.702;2022-08-18T05:59:37;95176.72;;;17.89;89.92
62103;BME280;48077;48.104;11.702;2022-08-18T06:04:39;95168.28;;;17.95;89.90
62103;BME280;48077;48.104;11.702;2022-08-18T06:07:04;95162.03;;;18.00;90.06
62103;BME280;48077;48.104;11.702;2022-08-18T06:09:35;95154.47;;;18.02;89.62
62103;BME280;48077;48.104;11.702;2022-08-18T06:12:15;95158.47;;;18.05;89.68
62103;BME280;48077;48.104;11.702;2022-08-18T06:14:41;95158.13;;;18.11;89.29
62103;BME280;48077;48.104;11.702;2022-08-18T06:17:22;95175.56;;;18.19;88.95
62103;BME280;48077;48.104;11.702;2022-08-18T06:20:06;95173.38;;;18.21;88.11
62103;BME280;48077;48.104;11.702;2022-08-18T06:25:29;95169.22;;;18.29;88.67
62103;BME280;48077;48.104;11.702;2022-08-18T06:28:06;95166.75;;;18.32;88.85
62103;BME280;48077;48.104;11.702;2022-08-18T06:30:38;95166.72;;;18.37;89.29
62103;BME280;48077;48.104;11.702;2022-08-18T06:36:05;95159.78;;;18.31;90.39
62103;BME280;48077;48.104;11.702;2022-08-18T06:41:11;95146.72;;;18.38;88.95
62103;BME280;48077;48.104;11.702;2022-08-18T06:43:44;95136.84;;;18.48;89.17
62103;BME280;48077;48.104;11.702;2022-08-18T06:46:47;95131.44;;;18.48;89.31
62103;BME280;48077;48.104;11.702;2022-08-18T06:49:11;95140.56;;;18.52;88.82
62103;BME280;48077;48.104;11.702;2022-08-18T06:51:36;95137.59;;;18.53;88.15
62103;BME280;48077;48.104;11.702;2022-08-18T06:54:45;95138.69;;;18.52;87.55
62103;BME280;48077;48.104;11.702;2022-08-18T06:56:52;95127.25;;;18.60;88.12
62103;BME280;48077;48.104;11.702;2022-08-18T06:59:23;95110.84;;;18.71;88.74
62103;BME280;48077;48.104;11.702;2022-08-18T07:01:51;95099.19;;;18.75;89.30
62103;BME280;48077;48.104;11.702;2022-08-18T07:04:44;95102.94;;;18.79;88.91
62103;BME280;48077;48.104;11.702;2022-08-18T07:07:30;95113.09;;;18.88;87.51
62103;BME280;48077;48.104;11.702;2022-08-18T07:09:54;95118.34;;;18.98;86.10
62103;BME280;48077;48.104;11.702;2022-08-18T07:12:21;95128.44;;;19.06;85.16
62103;BME280;48077;48.104;11.702;2022-08-18T07:14:49;95128.25;;;19.03;82.37
62103;BME280;48077;48.104;11.702;2022-08-18T07:17:19;95122.75;;;19.08;82.08
62103;BME280;48077;48.104;11.702;2022-08-18T07:19:53;95125.97;;;19.10;82.58
62103;BME280;48077;48.104;11.702;2022-08-18T07:22:17;95122.97;;;19.11;82.23
62103;BME280;48077;48.104;11.702;2022-08-18T07:24:51;95138.53;;;19.19;81.21
62103;BME280;48077;48.104;11.702;2022-08-18T07:27:21;95135.22;;;19.23;81.16
62103;BME280;48077;48.104;11.702;2022-08-18T07:30:05;95125.56;;;19.35;81.80
62103;BME280;48077;48.104;11.702;2022-08-18T07:32:35;95134.47;;;19.36;80.62
62103;BME280;48077;48.104;11.702;2022-08-18T07:35:01;95150.00;;;19.44;80.20
62103;BME280;48077;48.104;11.702;2022-08-18T07:37:31;95149.31;;;19.52;79.85
62103;BME280;48077;48.104;11.702;2022-08-18T07:43:36;95122.59;;;19.65;79.26
62103;BME280;48077;48.104;11.702;2022-08-18T07:46:20;95117.81;;;19.75;78.60
62103;BME280;48077;48.104;11.702;2022-08-18T07:48:45;95123.63;;;19.83;77.97
62103;BME280;48077;48.104;11.702;2022-08-18T07:54:07;95121.63;;;19.88;76.04
62103;BME280;48077;48.104;11.702;2022-08-18T08:02:16;95125.31;;;20.20;76.97
62103;BME280;48077;48.104;11.702;2022-08-18T08:05:19;95129.72;;;20.30;74.82
62103;BME280;48077;48.104;11.702;2022-08-18T08:10:32;95132.31;;;20.49;74.13
62103;BME280;48077;48.104;11.702;2022-08-18T08:15:46;95125.97;;;20.67;72.74
62103;BME280;48077;48.104;11.702;2022-08-18T08:18:24;95121.59;;;20.80;73.23
62103;BME280;48077;48.104;11.702;2022-08-18T08:20:56;95097.56;;;20.87;73.48
62103;BME280;48077;48.104;11.702;2022-08-18T08:23:23;95095.94;;;21.00;73.13
62103;BME280;48077;48.104;11.702;2022-08-18T08:28:41;95106.63;;;20.82;70.90
62103;BME280;48077;48.104;11.702;2022-08-18T08:33:55;95111.75;;;20.84;70.92
62103;BME280;48077;48.104;11.702;2022-08-18T08:36:28;95095.13;;;20.99;71.25
62103;BME280;48077;48.104;11.702;2022-08-18T08:39:00;95100.28;;;21.10;70.93
62103;BME280;48077;48.104;11.702;2022-08-18T08:41:46;95090.63;;;21.17;71.07
62103;BME280;48077;48.104;11.702;2022-08-18T08:44:21;95085.72;;;21.28;70.76
62103;BME280;48077;48.104;11.702;2022-08-18T08:46:53;95076.84;;;21.36;71.19
62103;BME280;48077;48.104;11.702;2022-08-18T08:51:52;95084.94;;;21.28;69.75
62103;BME280;48077;48.104;11.702;2022-08-18T08:54:23;95093.31;;;21.40;70.69
62103;BME280;48077;48.104;11.702;2022-08-18T08:56:51;95091.16;;;21.51;69.84
62103;BME280;48077;48.104;11.702;2022-08-18T08:59:18;95082.75;;;21.61;69.53
62103;BME280;48077;48.104;11.702;2022-08-18T09:07:01;95073.63;;;22.06;68.07
62103;BME280;48077;48.104;11.702;2022-08-18T09:09:47;95069.81;;;22.15;65.59
62103;BME280;48077;48.104;11.702;2022-08-18T09:12:46;95067.16;;;22.24;64.79
62103;BME280;48077;48.104;11.702;2022-08-18T09:15:26;95072.44;;;22.38;63.92
62103;BME280;48077;48.104;11.702;2022-08-18T09:21:25;95069.06;;;22.41;62.07
62103;BME280;48077;48.104;11.702;2022-08-18T09:24:04;95078.38;;;22.57;61.66
62103;BME280;48077;48.104;11.702;2022-08-18T09:26:41;95082.84;;;22.62;60.37
62103;BME280;48077;48.104;11.702;2022-08-18T09:29:22;95083.31;;;22.64;61.22
62103;BME280;48077;48.104;11.702;2022-08-18T09:31:46;95083.50;;;22.68;60.80
62103;BME280;48077;48.104;11.702;2022-08-18T09:41:57;95051.97;;;22.93;58.80
62103;BME280;48077;48.104;11.702;2022-08-18T09:47:11;95056.44;;;22.89;57.59
62103;BME280;48077;48.104;11.702;2022-08-18T09:55:06;95046.81;;;23.26;56.91
62103;BME280;48077;48.104;11.702;2022-08-18T09:57:31;95069.53;;;23.30;56.12
62103;BME280;48077;48.104;11.702;2022-08-18T10:07:41;95061.84;;;23.88;56.84
62103;BME280;48077;48.104;11.702;2022-08-18T10:18:41;95065.34;;;24.18;55.90
62103;BME280;48077;48.104;11.702;2022-08-18T10:21:12;95082.31;;;24.45;54.96
62103;BME280;48077;48.104;11.702;2022-08-18T10:28:56;95090.53;;;24.66;53.69
62103;BME280;48077;48.104;11.702;2022-08-18T10:31:20;95088.09;;;24.43;52.50
62103;BME280;48077;48.104;11.702;2022-08-18T10:34:03;95093.19;;;24.24;53.33
62103;BME280;48077;48.104;11.702;2022-08-18T10:36:59;95085.38;;;24.43;53.29
62103;BME280;48077;48.104;11.702;2022-08-18T10:42:10;95082.91;;;24.59;52.38
62103;BME280;48077;48.104;11.702;2022-08-18T10:44:41;95068.94;;;24.82;51.91
62103;BME280;48077;48.104;11.702;2022-08-18T10:47:06;95056.75;;;25.00;51.59
62103;BME280;48077;48.104;11.702;2022-08-18T10:49:30;95064.47;;;25.32;51.97
62103;BME280;48077;48.104;11.702;2022-08-18T10:54:36;95053.03;;;25.51;49.05
62103;BME280;48077;48.104;11.702;2022-08-18T11:00:11;95040.38;;;25.34;49.74
62103;BME280;48077;48.104;11.702;2022-08-18T11:05:09;95041.25;;;25.96;50.30
62103;BME280;48077;48.104;11.702;2022-08-18T11:07:33;95034.50;;;25.69;49.50
62103;BME280;48077;48.104;11.702;2022-08-18T11:09:58;95029.03;;;25.81;49.84
62103;BME280;48077;48.104;11.702;2022-08-18T11:12:48;95037.00;;;25.61;50.86
62103;BME280;48077;48.104;11.702;2022-08-18T11:15:23;95050.88;;;25.44;50.73
62103;BME280;48077;48.104;11.702;2022-08-18T11:18:04;95027.72;;;25.29;49.69
62103;BME280;48077;48.104;11.702;2022-08-18T11:20:31;95022.91;;;25.59;49.42
62103;BME280;48077;48.104;11.702;2022-08-18T11:22:58;95023.13;;;25.79;48.72
62103;BME280;48077;48.104;11.702;2022-08-18T11:25:36;95022.91;;;25.59;50.47
62103;BME280;48077;48.104;11.702;2022-08-18T11:28:01;95013.19;;;25.50;49.91
62103;BME280;48077;48.104;11.702;2022-08-18T11:30:29;94999.44;;;25.34;49.82
62103;BME280;48077;48.104;11.702;2022-08-18T11:32:54;94997.94;;;25.24;50.80
62103;BME280;48077;48.104;11.702;2022-08-18T11:35:20;95003.41;;;25.36;51.24
62103;BME280;48077;48.104;11.702;2022-08-18T11:37:59;94975.13;;;25.90;50.42
62103;BME280;48077;48.104;11.702;2022-08-18T11:40:38;94977.56;;;26.32;49.48
62103;BME280;48077;48.104;11.702;2022-08-18T11:53:25;94948.06;;;26.66;46.66
62103;BME280;48077;48.104;11.702;2022-08-18T11:58:58;94916.09;;;26.54;46.58
62103;BME280;48077;48.104;11.702;2022-08-18T12:01:37;94911.47;;;26.71;46.49
62103;BME280;48077;48.104;11.702;2022-08-18T12:04:28;94902.22;;;26.75;46.09
62103;BME280;48077;48.104;11.702;2022-08-18T12:06:58;94894.47;;;26.93;46.22
62103;BME280;48077;48.104;11.702;2022-08-18T12:09:33;94899.88;;;27.21;46.50
62103;BME280;48077;48.104;11.702;2022-08-18T12:12:02;94911.09;;;27.48;46.17
62103;BME280;48077;48.104;11.702;2022-08-18T12:14:31;94941.97;;;27.64;46.00
62103;BME280;48077;48.104;11.702;2022-08-18T12:16:55;94940.94;;;27.69;45.59
62103;BME280;48077;48.104;11.702;2022-08-18T12:19:20;94947.66;;;27.88;43.82
62103;BME280;48077;48.104;11.702;2022-08-18T12:21:51;94945.69;;;27.88;43.89
62103;BME280;48077;48.104;11.702;2022-08-18T12:26:43;94942.06;;;27.68;45.05
62103;BME280;48077;48.104;11.702;2022-08-18T12:29:06;94933.91;;;27.52;45.31
62103;BME280;48077;48.104;11.702;2022-08-18T12:31:30;94930.31;;;27.20;45.81
62103;BME280;48077;48.104;11.702;2022-08-18T12:33:53;94928.00;;;27.06;45.78
62103;BME280;48077;48.104;11.702;2022-08-18T12:36:16;94917.41;;;26.89;46.54
62103;BME280;48077;48.104;11.702;2022-08-18T12:38:42;94905.84;;;26.51;46.03
62103;BME280;48077;48.104;11.702;2022-08-18T12:41:06;94899.97;;;26.37;47.43
62103;BME280;48077;48.104;11.702;2022-08-18T12:43:33;94915.53;;;26.49;47.70
62103;BME280;48077;48.104;11.702;2022-08-18T12:45:57;94923.28;;;26.59;47.55
62103;BME280;48077;48.104;11.702;2022-08-18T12:48:21;94924.09;;;26.75;47.19
62103;BME280;48077;48.104;11.702;2022-08-18T12:50:45;94932.03;;;26.80;47.34
62103;BME280;48077;48.104;11.702;2022-08-18T12:53:09;94924.91;;;26.76;48.21
62103;BME280;48077;48.104;11.702;2022-08-18T12:55:36;94921.38;;;26.75;48.59
62103;BME280;48077;48.104;11.702;2022-08-18T12:58:01;94924.56;;;26.77;47.27
62103;BME280;48077;48.104;11.702;2022-08-18T13:00:26;94933.53;;;26.78;47.84
62103;BME280;48077;48.104;11.702;2022-08-18T13:02:49;94937.91;;;26.67;49.15
62103;BME280;48077;48.104;11.702;2022-08-18T13:05:12;94929.88;;;26.58;49.37
62103;BME280;48077;48.104;11.702;2022-08-18T13:07:36;94912.97;;;26.40;49.95
62103;BME280;48077;48.104;11.702;2022-08-18T13:09:59;94913.53;;;26.33;50.13
62103;BME280;48077;48.104;11.702;2022-08-18T13:12:23;94899.19;;;26.36;50.24
62103;BME280;48077;48.104;11.702;2022-08-18T13:14:48;94882.78;;;26.36;50.35
62103;BME280;48077;48.104;11.702;2022-08-18T13:17:12;94881.44;;;26.30;50.68
62103;BME280;48077;48.104;11.702;2022-08-18T13:19:36;94870.56;;;26.18;50.37
62103;BME280;48077;48.104;11.702;2022-08-18T13:22:00;94868.81;;;25.97;49.96
62103;BME280;48077;48.104;11.702;2022-08-18T13:24:23;94868.72;;;25.81;50.60
62103;BME280;48077;48.104;11.702;2022-08-18T13:26:47;94876.94;;;25.69;49.87
62103;BME280;48077;48.104;11.702;2022-08-18T13:29:11;94877.72;;;25.57;50.65
62103;BME280;48077;48.104;11.702;2022-08-18T13:31:34;94879.91;;;25.52;50.41
62103;BME280;48077;48.104;11.702;2022-08-18T13:34:00;94879.00;;;25.35;50.84
62103;BME280;48077;48.104;11.702;2022-08-18T13:36:25;94884.25;;;25.28;51.42
62103;BME280;48077;48.104;11.702;2022-08-18T13:38:50;94888.47;;;25.26;51.23
62103;BME280;48077;48.104;11.702;2022-08-18T13:41:15;94908.44;;;25.17;51.68
62103;BME280;48077;48.104;11.702;2022-08-18T13:43:40;94909.00;;;25.11;51.41
62103;BME280;48077;48.104;11.702;2022-08-18T13:46:06;94911.72;;;25.11;52.05
62103;BME280;48077;48.104;11.702;2022-08-18T13:48:30;94911.25;;;25.09;51.92
62103;BME280;48077;48.104;11.702;2022-08-18T13:50:55;94906.13;;;25.07;52.03
62103;BME280;48077;48.104;11.702;2022-08-18T13:53:21;94895.56;;;25.05;52.08
62103;BME280;48077;48.104;11.702;2022-08-18T13:55:45;94887.72;;;25.16;51.54
62103;BME280;48077;48.104;11.702;2022-08-18T13:58:09;94875.81;;;25.09;51.33
62103;BME280;48077;48.104;11.702;2022-08-18T14:00:32;94848.38;;;24.93;52.03
62103;BME280;48077;48.104;11.702;2022-08-18T14:02:56;94858.41;;;25.13;51.93
62103;BME280;48077;48.104;11.702;2022-08-18T14:05:21;94835.31;;;25.35;51.66
62103;BME280;48077;48.104;11.702;2022-08-18T14:07:45;94837.38;;;25.38;52.29
62103;BME280;48077;48.104;11.702;2022-08-18T14:10:08;94821.91;;;25.42;52.03
62103;BME280;48077;48.104;11.702;2022-08-18T14:12:32;94807.47;;;25.42;52.16
62103;BME280;48077;48.104;11.702;2022-08-18T14:14:57;94804.28;;;25.40;52.78
62103;BME280;48077;48.104;11.702;2022-08-18T14:17:22;94793.94;;;25.33;52.39
62103;BME280;48077;48.104;11.702;2022-08-18T14:19:46;94793.47;;;25.31;53.00
62103;BME280;48077;48.104;11.702;2022-08-18T14:22:28;94794.53;;;25.27;52.46
62103;BME280;48077;48.104;11.702;2022-08-18T14:25:09;94774.50;;;25.10;53.79
62103;BME280;48077;48.104;11.702;2022-08-18T14:27:51;94780.88;;;25.02;54.68
62103;BME280;48077;48.104;11.702;2022-08-18T14:30:14;94770.00;;;24.90;54.40
62103;BME280;48077;48.104;11.702;2022-08-18T14:32:38;94790.78;;;24.94;54.04
62103;BME280;48077;48.104;11.702;2022-08-18T14:35:03;94788.38;;;24.93;54.16
62103;BME280;48077;48.104;11.702;2022-08-18T14:37:28;94794.19;;;24.91;54.07
62103;BME280;48077;48.104;11.702;2022-08-18T14:39:52;94783.63;;;24.90;54.49
62103;BME280;48077;48.104;11.702;2022-08-18T14:42:16;94782.16;;;24.92;54.52
62103;BME280;48077;48.104;11.702;2022-08-18T14:44:44;94789.28;;;24.97;53.84
62103;BME280;48077;48.104;11.702;2022-08-18T14:47:07;94776.00;;;24.95;54.29
62103;BME280;48077;48.104;11.702;2022-08-18T14:49:30;94779.09;;;24.94;53.92